Europa — C6QK8 — position and weather

sailwx.info

Track history (hours):
 
Tides and Currents Weather Stations Pressure Air Temp Water Temp Dewpoint Dewpoint Depression Visibility Wind Speed Wind Dir Waves Ship Positions

Europa

Operator: Hapag-Lloyd Container Line

Last reported at 2020-Jan-24 15:58 UTC. Time now 2020-Jan-25 05:39 UTC.
Position S 11°33' E 131°39'.

Length 199 m; draft 6.2 m.

Type: Passenger vessel. MMSI: 308007000.

Date/timePositionNaut miles runAvg speedWind from/ knotsBaromVisibWave heightAir tempDewpointWater temp
2020-Jan-24 15:58S 11°33' E 131°39'1818.3
2020-Jan-24 15:00S 11°50' E 131°33'1716.7
2020-Jan-24 14:00S 11°57' E 131°18'2813.9
2020-Jan-24 11:59S 12°08' E 130°51'1515.1
2020-Jan-24 11:00S 12°20' E 130°42'713.6
2020-Jan-24 10:29S 12°25' E 130°47'510.1
2020-Jan-24 10:00S 12°28' E 130°51'0 0.0
2020-Jan-24 07:30S 12°28' E 130°51'0 0.0
2020-Jan-24 07:00S 12°28' E 130°51'0 0.0
2020-Jan-24 03:30S 12°28' E 130°51'0 0.0
2020-Jan-24 02:30S 12°28' E 130°51'0 0.0
2020-Jan-24 00:27S 12°28' E 130°51'0 0.0
2020-Jan-23 22:00S 12°28' E 130°51'  
2020-Jan-18 09:55S 06°48' E 119°26'  
Track history (hours):
 
Tides and Currents Weather Stations Pressure Air Temp Water Temp Dewpoint Dewpoint Depression Visibility Wind Speed Wind Dir Waves Ship Positions

Europa

Operator: Hapag-Lloyd Container Line

Last reported at 2020-Jan-24 15:58 UTC. Time now 2020-Jan-25 05:39 UTC.
Position S 11°33' E 131°39'.

Length 199 m; draft 6.2 m.

Type: Passenger vessel. MMSI: 308007000.

Date/timePositionNaut miles runAvg speedWind from/ knotsBaromVisibWave heightAir tempDewpointWater temp
2020-Jan-24 15:58S 11°33' E 131°39'1818.3
2020-Jan-24 15:00S 11°50' E 131°33'1716.7
2020-Jan-24 14:00S 11°57' E 131°18'2813.9
2020-Jan-24 11:59S 12°08' E 130°51'1515.1
2020-Jan-24 11:00S 12°20' E 130°42'713.6
2020-Jan-24 10:29S 12°25' E 130°47'510.1
2020-Jan-24 10:00S 12°28' E 130°51'0 0.0
2020-Jan-24 07:30S 12°28' E 130°51'0 0.0
2020-Jan-24 07:00S 12°28' E 130°51'0 0.0
2020-Jan-24 03:30S 12°28' E 130°51'0 0.0
2020-Jan-24 02:30S 12°28' E 130°51'0 0.0
2020-Jan-24 00:27S 12°28' E 130°51'0 0.0
2020-Jan-23 22:00S 12°28' E 130°51'  
2020-Jan-18 09:55S 06°48' E 119°26'  

Dump ship's entire track history